Main page
METAR-TAF:

METAR-TAF

Airports :

Rivas, Nicaragua

latitude: 11-25N, longitude: 085-50W, elevation: 53 m

Current weather observation

The report was made 1 hour and 3 minutes ago, at 17:00 UTC
Wind 6 kt from the East
Temperature 29°C
Humidity 70%
Pressure 1014 hPa
Visibility: 9000 m
Few clouds at a height of 1200 ft, Cumulonimbus.
Broken clouds at a height of 1400 ft

METAR: MNRS 221700Z 10006KT 9000 FEW012CB BKN014 29/23 Q1014 CB/SE/S

Time: 12:03 (18:03 UTC)


TAF: missing

Weather observations and forecasts of more than 4000 airports (METAR and TAF reports).

The available stations are represented by yellow and red dots on the map.

Hover mouse over dot to see the name of the station.

Then click to see weather observations and forecasts.

To change the map : click on the green buttons with a black cross to zoom in, on the green button with a dash to zoom out, or on the green arrows for adjacent maps.


METAR-TAF: